METAR
Diposting tanggal: 16 November 2020

Pukul : 03.00 UTC

Isi :

METAR WAGI 180300Z 30003KT 9000 FEW014 27/23 Q1010 NOSIG=